LIED/DCI METAR and TAF weather

Enter ICAO airport designator
Station Type Date Time Source
LIED METAR 2019/04/19 09:55 UTC NOAA

LIED 190955Z 11016KT 9999 FEW030 20/13 Q1021 RMK BKN BKN200 VIS MIN 9999 WIND THR35 /////KT WIND THR17 /////KT BLU


Station Type Date Time Source
LIED Decoded METAR 2019/04/19 09:55 UTC NOAA

Decimomannu, Italy (LIED) 39-21N 008-58E 28M
Apr 19, 2019 - 05:55 AM EDT / 2019.04.19 0955 UTC
Wind: from the ESE (110 degrees) at 18 MPH (16 KT):0
Visibility: greater than 7 mile(s):0
Sky conditions: mostly clear
Temperature: 68 F (20 C)
Dew Point: 55 F (13 C)
Relative Humidity: 64%
Pressure (altimeter): 30.15 in. Hg (1021 hPa)
ob: LIED 190955Z 11016KT 9999 FEW030 20/13 Q1021 RMK BKN BKN200 VIS MIN 9999 WIND THR35 /////KT WIND THR17 /////KT BLU
cycle: 10

Station Type Date Time Source
LIED TAF 2015/03/04 18:18 UTC NOAA

TAF TAF LIED 041700Z 0418/0506 33014KT 9999 SCT020 BKN040 BKN060
TEMPO 0420/0502 33020KT 5000 RA OR SHRA FEW022CB

Example: see airport list